Time;durP1;ratioP1;P1;durP2;ratioP2;P2;SDS_P1;SDS_P2;PMS_P1;PMS_P2;Temp;Humidity;BMP_temperature;BMP_pressure;BME280_temperature;BME280_humidity;BME280_pressure;Samples;Min_cycle;Max_cycle;Signal;HPM_P1;HPM_P2
2022/01/02 00:00:16;;;;;;;;;23.80;20.80;;;;;11.65;68.14;101364.72;4975597;28;45327;-54
2022/01/02 00:02:42;;;;;;;;;21.80;20.60;;;;;11.57;67.91;101362.16;4975313;28;45771;-53
2022/01/02 00:05:12;;;;;;;;;24.00;21.25;;;;;11.56;68.10;101374.19;4975235;28;45652;-54
2022/01/02 00:07:50;;;;;;;;;20.40;17.60;;;;;11.56;68.58;101374.19;4973918;28;45520;-51
2022/01/02 00:10:15;;;;;;;;;21.60;18.20;;;;;11.37;68.38;101333.47;4957772;28;45305;-54
2022/01/02 00:12:43;;;;;;;;;20.50;18.75;;;;;11.53;68.19;101354.28;4973734;28;45904;-54
2022/01/02 00:15:09;;;;;;;;;23.80;21.60;;;;;11.48;68.13;101356.81;4974153;28;45482;-52
2022/01/02 00:17:35;;;;;;;;;18.00;16.50;;;;;11.50;67.83;101362.97;4973588;28;45519;-50
2022/01/02 00:20:10;;;;;;;;;22.25;18.25;;;;;11.49;68.32;101366.75;4975578;28;45469;-55
2022/01/02 00:22:37;;;;;;;;;18.80;16.00;;;;;11.52;68.31;101363.59;4958608;28;46635;-57
2022/01/02 00:25:08;;;;;;;;;23.00;19.40;;;;;11.53;68.49;101372.72;4974992;28;45385;-55
2022/01/02 00:27:35;;;;;;;;;19.80;19.60;;;;;11.56;68.90;101374.19;4973907;28;45730;-56
2022/01/02 00:30:02;;;;;;;;;26.00;22.40;;;;;11.58;68.72;101372.94;4918393;28;45797;-51
2022/01/02 00:32:28;;;;;;;;;17.40;17.40;;;;;11.62;68.67;101382.47;4954085;28;45869;-56
2022/01/02 00:34:54;;;;;;;;;21.25;18.00;;;;;11.50;68.44;101353.84;4955867;28;45771;-56
2022/01/02 00:37:19;;;;;;;;;18.00;17.25;;;;;11.66;68.21;101371.91;4954294;28;45436;-53
2022/01/02 00:39:50;;;;;;;;;21.50;19.25;;;;;11.65;68.20;101364.72;4955798;28;45289;-54
2022/01/02 00:42:29;;;;;;;;;22.60;20.80;;;;;11.66;68.15;101356.28;4954948;28;46646;-55
2022/01/02 00:45:04;;;;;;;;;21.80;21.20;;;;;11.65;68.14;101351.81;4953978;28;45815;-50
2022/01/02 00:47:37;;;;;;;;;22.00;20.80;;;;;11.66;68.07;101369.16;4955617;28;45392;-52
2022/01/02 00:50:13;;;;;;;;;26.40;22.40;;;;;11.66;68.24;101367.28;4956812;28;45484;-55
2022/01/02 00:52:40;;;;;;;;;19.00;17.00;;;;;11.66;68.23;101366.41;4958305;28;46233;-54
2022/01/02 00:55:22;;;;;;;;;20.20;17.00;;;;;11.69;68.06;101378.91;4959037;28;45715;-56
2022/01/02 00:58:00;;;;;;;;;21.60;21.00;;;;;11.69;67.99;101368.75;4958736;28;45425;-53
2022/01/02 01:00:26;;;;;;;;;21.00;21.00;;;;;11.55;67.75;101334.84;4941750;28;45399;-51
2022/01/02 01:02:55;;;;;;;;;19.00;19.00;;;;;11.56;68.25;101328.31;4958619;28;45589;-50
2022/01/02 01:05:26;;;;;;;;;20.60;17.40;;;;;11.63;68.31;101331.09;4956866;28;45412;-53
2022/01/02 01:07:53;;;;;;;;;23.00;20.00;;;;;11.64;68.41;101332.78;4957511;28;45401;-54
2022/01/02 01:10:20;;;;;;;;;21.40;21.40;;;;;11.64;68.00;101338.28;4966250;28;45381;-53
2022/01/02 01:12:49;;;;;;;;;20.80;16.80;;;;;11.62;68.19;101324.75;4976618;28;45459;-51
2022/01/02 01:15:14;;;;;;;;;19.40;18.60;;;;;11.59;68.09;101307.81;4977126;28;45368;-51
2022/01/02 01:17:40;;;;;;;;;22.00;22.00;;;;;11.58;67.61;101303.38;4977907;28;45734;-55
2022/01/02 01:20:07;;;;;;;;;19.50;15.75;;;;;11.51;68.08;101295.94;4960883;28;45378;-56
2022/01/02 01:22:33;;;;;;;;;23.60;20.60;;;;;11.50;68.72;101287.88;4959927;28;46432;-57
2022/01/02 01:24:59;;;;;;;;;17.25;16.00;;;;;11.48;68.99;101290.81;4977925;28;45388;-54
2022/01/02 01:27:24;;;;;;;;;18.75;18.75;;;;;11.28;68.19;101257.78;4960488;28;45510;-53
2022/01/02 01:29:50;;;;;;;;;19.75;17.25;;;;;11.48;68.37;101285.31;4978108;28;45587;-52
2022/01/02 01:32:15;;;;;;;;;17.50;15.75;;;;;11.51;68.44;101306.06;4977665;28;46348;-51
2022/01/02 01:34:41;;;;;;;;;15.00;15.00;;;;;11.52;68.65;101311.38;4977704;28;45832;-55
2022/01/02 01:37:07;;;;;;;;;22.50;17.75;;;;;11.56;68.71;101308.19;4977979;28;45319;-53
2022/01/02 01:39:32;;;;;;;;;20.50;18.50;;;;;11.48;68.69;101285.31;4959611;28;45278;-52
2022/01/02 01:42:06;;;;;;;;;20.25;19.00;;;;;11.56;68.27;101294.44;4943846;28;47400;-52
2022/01/02 01:44:41;;;;;;;;;12.40;12.40;;;;;11.56;68.24;101297.19;4961381;28;45427;-56
2022/01/02 01:47:07;;;;;;;;;20.20;17.00;;;;;11.50;68.46;101288.75;4977789;28;45368;-53
2022/01/02 01:49:32;;;;;;;;;18.25;16.50;;;;;11.53;68.83;101293.00;4978205;28;45547;-53
2022/01/02 01:51:58;;;;;;;;;20.00;19.00;;;;;11.52;68.34;101289.38;4959557;28;47057;-56
2022/01/02 01:54:24;;;;;;;;;17.25;17.25;;;;;11.48;68.42;101276.25;4943488;28;45312;-53
2022/01/02 01:56:53;;;;;;;;;17.00;17.00;;;;;11.06;68.80;101202.91;4943662;28;45298;-54
2022/01/02 01:59:21;;;;;;;;;22.20;18.60;;;;;11.52;68.72;101275.63;4977378;28;45474;-50
2022/01/02 02:01:47;;;;;;;;;18.40;17.40;;;;;11.51;68.01;101270.34;4975934;28;46685;-51
2022/01/02 02:04:13;;;;;;;;;22.25;20.50;;;;;11.32;68.95;101245.31;4959419;28;45838;-51
2022/01/02 02:06:38;;;;;;;;;19.00;14.00;;;;;11.45;68.54;101272.00;4977079;28;45429;-55
2022/01/02 02:09:04;;;;;;;;;21.50;17.75;;;;;11.44;68.71;101269.47;4977257;28;45267;-49
2022/01/02 02:11:30;;;;;;;;;20.75;17.00;;;;;11.45;68.87;101262.91;4958888;28;46335;-51
2022/01/02 02:13:56;;;;;;;;;19.50;15.00;;;;;11.41;69.13;101247.91;4976770;28;45332;-53
2022/01/02 02:16:22;;;;;;;;;17.50;17.50;;;;;11.42;68.74;101253.16;4959470;28;45386;-55
2022/01/02 02:18:48;;;;;;;;;16.40;14.40;;;;;11.42;68.83;101242.16;4976846;28;45586;-54
2022/01/02 02:21:13;;;;;;;;;20.00;18.00;;;;;11.43;68.78;101243.88;4976726;28;45390;-52
2022/01/02 02:23:39;;;;;;;;;23.75;18.25;;;;;11.42;69.14;101236.66;4942835;28;45549;-54
2022/01/02 02:26:05;;;;;;;;;20.50;17.00;;;;;11.42;69.02;101230.34;4976876;28;45332;-52
2022/01/02 02:28:31;;;;;;;;;15.00;14.75;;;;;11.37;69.19;101217.22;4959130;28;45473;-51
2022/01/02 02:30:56;;;;;;;;;13.75;13.00;;;;;11.45;68.63;101230.78;4976616;28;46212;-52
2022/01/02 02:33:24;;;;;;;;;20.00;18.75;;;;;11.43;68.72;101221.91;4976398;28;45404;-56
2022/01/02 02:35:50;;;;;;;;;19.00;17.20;;;;;11.46;69.12;101221.47;4976709;28;45363;-55
2022/01/02 02:38:16;;;;;;;;;17.50;15.00;;;;;11.34;69.06;101201.13;4976571;28;45384;-52
2022/01/02 02:40:42;;;;;;;;;22.40;15.00;;;;;11.46;68.45;101209.63;4976724;28;45626;-53
2022/01/02 02:51:53;;;;;;;;;20.40;14.80;;;;;11.44;69.06;101192.50;4976552;28;46336;-54
2022/01/02 02:54:24;;;;;;;;;19.40;14.40;;;;;11.42;68.38;101184.44;4976497;28;45511;-55
2022/01/02 02:56:59;;;;;;;;;16.00;16.00;;;;;11.29;68.80;101151.44;4975158;28;45405;-52
2022/01/02 02:59:32;;;;;;;;;14.00;13.60;;;;;11.42;68.55;101170.72;4975294;28;45206;-56
2022/01/02 03:01:57;;;;;;;;;18.60;16.60;;;;;11.27;68.68;101148.06;4952803;28;45549;-56
2022/01/02 03:04:23;;;;;;;;;17.50;15.75;;;;;11.38;68.47;101183.19;4976897;28;45410;-53
2022/01/02 03:06:49;;;;;;;;;16.25;16.25;;;;;11.32;68.64;101182.09;4993408;28;45260;-52
2022/01/02 03:09:18;;;;;;;;;14.00;13.75;;;;;11.30;68.96;101184.22;4993222;28;45561;-51
2022/01/02 03:11:43;;;;;;;;;16.60;16.60;;;;;11.34;68.37;101179.16;4965380;28;48521;-55
2022/01/02 03:14:11;;;;;;;;;15.00;13.25;;;;;11.35;68.56;101178.09;4974477;28;45410;-56
2022/01/02 03:16:36;;;;;;;;;16.20;14.40;;;;;11.31;68.59;101160.34;4974079;28;45398;-53
2022/01/02 03:19:02;;;;;;;;;17.00;15.50;;;;;11.28;68.54;101147.84;4976225;28;45397;-53
2022/01/02 03:21:28;;;;;;;;;17.50;14.75;;;;;11.33;68.36;101150.84;4973611;28;45480;-51
2022/01/02 03:23:53;;;;;;;;;16.50;11.25;;;;;11.33;68.31;101145.34;4956616;28;45425;-55
2022/01/02 03:26:19;;;;;;;;;15.00;15.00;;;;;11.35;68.63;101156.09;4958652;28;45375;-50
2022/01/02 03:28:45;;;;;;;;;13.25;11.75;;;;;11.36;68.82;101182.53;4976088;28;45295;-49
2022/01/02 03:31:10;;;;;;;;;13.40;12.20;;;;;11.39;68.69;101168.38;4975596;28;46241;-54
2022/01/02 03:33:36;;;;;;;;;17.00;15.25;;;;;11.44;68.82;101184.25;4975685;28;45319;-54
2022/01/02 03:36:01;;;;;;;;;19.25;16.25;;;;;11.44;68.22;101176.00;4975915;28;45313;-53
2022/01/02 03:38:27;;;;;;;;;15.25;13.75;;;;;11.45;67.93;101175.81;4975951;28;45320;-51
2022/01/02 03:40:52;;;;;;;;;16.75;16.00;;;;;11.46;68.73;101176.63;4957953;28;45692;-53
2022/01/02 03:43:18;;;;;;;;;20.00;14.75;;;;;11.50;68.81;101175.19;4957940;28;45383;-53
2022/01/02 03:45:43;;;;;;;;;15.50;15.00;;;;;11.41;67.86;101157.19;4976083;28;45360;-55
2022/01/02 03:48:09;;;;;;;;;17.25;15.00;;;;;11.28;68.15;101125.88;4975867;28;45435;-53
2022/01/02 03:50:34;;;;;;;;;13.50;13.50;;;;;11.52;67.69;101154.69;4957961;28;47202;-55
2022/01/02 03:53:00;;;;;;;;;18.50;17.00;;;;;11.53;67.70;101161.03;4941850;28;45396;-53
2022/01/02 03:55:25;;;;;;;;;16.25;14.25;;;;;11.31;68.18;101116.38;4975361;28;45658;-50
2022/01/02 03:57:51;;;;;;;;;13.75;13.75;;;;;11.57;67.71;101150.47;4975405;28;45495;-56
2022/01/02 04:00:18;;;;;;;;;14.25;13.75;;;;;11.56;67.54;101149.59;4958239;28;46180;-53
2022/01/02 04:02:44;;;;;;;;;20.20;16.20;;;;;11.58;68.47;101141.16;4975534;28;45360;-52
2022/01/02 04:05:12;;;;;;;;;14.75;13.75;;;;;11.60;68.18;101158.28;4958076;28;45438;-51
2022/01/02 04:07:37;;;;;;;;;18.20;17.00;;;;;11.51;67.93;101133.75;4975477;28;45332;-50
2022/01/02 04:10:07;;;;;;;;;15.50;14.25;;;;;11.59;67.95;101142.84;4975115;28;45338;-52
2022/01/02 04:12:33;;;;;;;;;14.00;13.40;;;;;11.63;68.09;101146.88;4973644;28;45526;-53
2022/01/02 04:14:59;;;;;;;;;17.00;17.00;;;;;11.61;67.91;101147.09;4975214;28;45355;-57
2022/01/02 04:17:24;;;;;;;;;13.00;13.00;;;;;11.58;68.06;101149.41;4975598;28;45321;-52
2022/01/02 04:19:50;;;;;;;;;17.50;14.25;;;;;11.52;66.85;101121.69;4957715;28;45568;-55
2022/01/02 04:22:16;;;;;;;;;20.00;16.80;;;;;11.62;67.45;101136.91;4957691;28;45364;-54
2022/01/02 04:24:42;;;;;;;;;20.40;13.80;;;;;11.59;67.58;101123.59;4974437;28;45378;-54
2022/01/02 04:27:08;;;;;;;;;16.00;12.75;;;;;11.66;67.73;101119.81;4978773;28;45355;-51
2022/01/02 04:29:33;;;;;;;;;16.00;13.75;;;;;11.66;68.02;101119.81;4960556;28;47561;-51
2022/01/02 04:31:59;;;;;;;;;14.00;14.00;;;;;11.68;67.77;101138.84;4978608;28;45315;-54
2022/01/02 04:34:24;;;;;;;;;20.00;18.25;;;;;11.57;67.04;101106.47;4978332;28;45493;-48
2022/01/02 04:36:50;;;;;;;;;18.00;16.00;;;;;11.45;67.64;101096.09;4978813;28;45977;-52
2022/01/02 04:39:15;;;;;;;;;16.00;13.50;;;;;11.68;68.03;101125.09;4960560;28;46894;-54
2022/01/02 04:41:41;;;;;;;;;15.25;12.75;;;;;11.71;67.73;101129.31;4978234;28;45372;-53
2022/01/02 04:44:06;;;;;;;;;10.75;10.75;;;;;11.60;67.75;101104.16;4976754;28;45548;-50
2022/01/02 04:46:32;;;;;;;;;10.00;9.75;;;;;11.73;67.55;101111.56;4978310;28;45426;-51
2022/01/02 04:48:57;;;;;;;;;15.25;11.75;;;;;11.75;68.10;101114.09;4978101;28;45426;-54
2022/01/02 04:51:23;;;;;;;;;14.75;13.75;;;;;11.74;67.54;101095.91;4978043;28;45497;-55
2022/01/02 04:53:49;;;;;;;;;16.75;13.75;;;;;11.58;67.29;101073.25;4978337;28;45347;-51
2022/01/02 04:56:15;;;;;;;;;15.80;13.40;;;;;11.74;66.87;101096.75;4978237;28;45303;-55
2022/01/02 04:58:40;;;;;;;;;15.80;13.40;;;;;11.72;67.10;101093.38;4978024;28;46207;-50
2022/01/02 05:01:11;;;;;;;;;12.25;11.75;;;;;11.74;66.99;101088.50;4978361;28;45233;-48
2022/01/02 05:03:40;;;;;;;;;15.80;14.60;;;;;11.71;67.13;101069.69;4978588;28;45358;-54
2022/01/02 05:06:06;;;;;;;;;13.80;13.80;;;;;11.74;66.35;101058.25;4978258;28;45264;-54
2022/01/02 05:08:32;;;;;;;;;15.80;13.80;;;;;11.61;66.89;101022.50;4978145;28;46467;-52
2022/01/02 05:10:57;;;;;;;;;10.50;9.25;;;;;11.74;66.38;101051.91;4978227;28;45264;-49
2022/01/02 05:13:23;;;;;;;;;11.25;11.25;;;;;11.73;66.59;101048.31;4978575;28;45251;-51
2022/01/02 05:15:48;;;;;;;;;11.75;11.75;;;;;11.74;66.93;101069.25;4978354;28;45559;-55
2022/01/02 05:18:14;;;;;;;;;12.50;12.50;;;;;11.75;66.89;101081.94;4977983;28;45457;-54
2022/01/02 05:20:44;;;;;;;;;13.75;10.75;;;;;11.76;66.82;101082.78;4978281;28;45523;-52
2022/01/02 05:23:09;;;;;;;;;15.20;11.40;;;;;11.77;66.91;101096.34;4978299;28;45389;-51
2022/01/02 05:25:35;;;;;;;;;10.00;10.00;;;;;11.75;66.01;101089.34;4978591;28;45573;-53
2022/01/02 05:28:00;;;;;;;;;13.75;12.75;;;;;11.78;66.44;101077.91;4977861;28;46406;-55
2022/01/02 05:30:26;;;;;;;;;11.25;11.00;;;;;11.75;65.87;101061.84;4977821;28;45387;-53
2022/01/02 05:32:51;;;;;;;;;12.50;11.25;;;;;11.73;65.19;101052.94;4978136;28;45346;-55
2022/01/02 05:35:17;;;;;;;;;9.75;9.75;;;;;11.73;65.97;101053.81;4977867;28;45487;-55
2022/01/02 05:37:42;;;;;;;;;11.25;10.00;;;;;11.73;65.29;101053.81;4977883;28;45260;-54
2022/01/02 05:40:08;;;;;;;;;10.00;7.00;;;;;11.23;65.34;100956.16;4977559;28;45393;-51
2022/01/02 05:42:34;;;;;;;;;10.00;10.00;;;;;11.78;65.99;101062.28;4960194;28;45395;-51
2022/01/02 05:44:59;;;;;;;;;7.00;7.00;;;;;11.76;65.00;101058.91;4977973;28;45580;-57
2022/01/02 05:47:25;;;;;;;;;10.75;9.75;;;;;11.75;65.57;101051.69;4977622;28;45706;-51
2022/01/02 05:49:50;;;;;;;;;10.75;10.25;;;;;11.75;64.94;101059.09;4959992;28;45480;-51
2022/01/02 05:52:16;;;;;;;;;9.75;8.75;;;;;11.78;65.17;101062.28;4977830;28;45395;-54
2022/01/02 05:54:41;;;;;;;;;6.00;6.00;;;;;11.82;65.30;101070.09;4960412;28;45369;-57
2022/01/02 05:57:07;;;;;;;;;11.00;10.00;;;;;11.57;64.94;101046.84;4959230;28;46883;-52
2022/01/02 05:59:33;;;;;;;;;11.75;10.25;;;;;11.75;65.57;101059.94;4977480;28;45494;-52
2022/01/02 06:01:58;;;;;;;;;9.60;9.60;;;;;11.87;65.42;101081.31;4977626;28;45497;-55
2022/01/02 06:04:27;;;;;;;;;10.50;10.50;;;;;11.83;65.15;101067.13;4977586;28;45648;-54
2022/01/02 06:06:52;;;;;;;;;9.80;8.80;;;;;11.69;65.58;101033.28;4960096;28;46075;-52
2022/01/02 06:09:18;;;;;;;;;7.50;7.50;;;;;11.91;65.03;101068.84;4977588;28;45463;-52
2022/01/02 06:11:43;;;;;;;;;10.00;9.00;;;;;11.91;65.29;101064.16;4959701;28;45289;-53
2022/01/02 06:14:09;;;;;;;;;12.00;9.75;;;;;11.92;64.89;101059.50;4976065;28;45903;-53
2022/01/02 06:16:34;;;;;;;;;11.00;9.25;;;;;11.94;65.09;101065.63;4959616;28;46242;-51
2022/01/02 06:19:00;;;;;;;;;11.50;10.50;;;;;11.94;64.73;101054.63;4977525;28;45489;-48
2022/01/02 06:21:26;;;;;;;;;10.00;9.00;;;;;11.96;65.15;101052.53;4977330;28;45470;-55
2022/01/02 06:23:52;;;;;;;;;8.50;8.25;;;;;12.02;65.40;101042.56;4977259;28;45419;-55
2022/01/02 06:26:17;;;;;;;;;8.25;7.50;;;;;12.03;64.22;101050.66;4977141;28;45323;-52
2022/01/02 06:28:43;;;;;;;;;10.00;10.00;;;;;12.04;64.38;101066.09;4975490;28;45422;-53
2022/01/02 06:31:09;;;;;;;;;8.50;8.50;;;;;12.05;64.17;101056.78;4977096;28;45342;-55
2022/01/02 06:33:35;;;;;;;;;8.40;7.80;;;;;12.06;64.12;101080.47;4977348;28;45229;-56
2022/01/02 06:36:01;;;;;;;;;11.75;8.50;;;;;12.06;64.18;101088.72;4976353;28;45554;-53
2022/01/02 06:38:26;;;;;;;;;10.00;7.25;;;;;11.90;64.25;101045.16;4976445;28;45628;-52
2022/01/02 06:40:52;;;;;;;;;9.25;9.25;;;;;12.06;64.45;101080.47;4976527;28;45240;-52
2022/01/02 06:43:18;;;;;;;;;7.25;7.25;;;;;12.04;64.33;101068.00;4938364;28;45558;-58
2022/01/02 06:45:44;;;;;;;;;9.00;8.00;;;;;12.06;64.42;101074.13;4956738;28;46084;-55
2022/01/02 06:48:09;;;;;;;;;8.20;7.20;;;;;12.07;64.95;101084.91;4965769;28;45638;-54
2022/01/02 06:50:35;;;;;;;;;7.00;5.00;;;;;12.08;64.41;101085.78;4938989;28;45981;-61
2022/01/02 06:53:01;;;;;;;;;7.75;7.00;;;;;12.07;64.71;101090.41;4952362;28;45630;-61
2022/01/02 06:55:26;;;;;;;;;8.75;7.25;;;;;12.04;64.19;101082.59;4955061;28;47474;-54
2022/01/02 06:57:52;;;;;;;;;7.75;7.25;;;;;12.02;64.55;101076.41;4974545;28;45470;-54
2022/01/02 07:00:17;;;;;;;;;9.25;7.75;;;;;12.03;64.59;101080.91;4974796;28;45745;-58
2022/01/02 07:02:43;;;;;;;;;8.25;7.75;;;;;12.01;64.44;101080.22;4976424;28;45510;-54
2022/01/02 07:05:08;;;;;;;;;8.50;8.50;;;;;11.97;65.14;101065.22;4956354;28;46835;-50
2022/01/02 07:07:40;;;;;;;;;10.50;8.50;;;;;11.78;65.25;101039.41;4940692;28;45432;-58
2022/01/02 07:10:05;;;;;;;;;8.40;7.40;;;;;11.98;65.25;101068.81;4958120;28;45393;-56
2022/01/02 07:12:31;;;;;;;;;9.25;9.25;;;;;11.95;65.52;101078.34;4975854;28;45419;-54
2022/01/02 07:14:56;;;;;;;;;9.50;8.00;;;;;11.95;65.48;101077.50;4952394;28;45980;-54
2022/01/02 07:17:22;;;;;;;;;11.50;10.00;;;;;11.93;65.16;101091.47;4974061;28;45476;-52
2022/01/02 07:19:48;;;;;;;;;9.50;8.25;;;;;11.94;65.72;101090.41;4973972;28;45774;-53
2022/01/02 07:22:13;;;;;;;;;10.60;8.60;;;;;11.95;65.51;101091.25;4974630;28;45942;-53
2022/01/02 07:24:39;;;;;;;;;6.25;6.25;;;;;11.91;65.57;101086.16;4949435;28;45936;-50
2022/01/02 07:27:05;;;;;;;;;8.25;7.50;;;;;11.91;65.49;101090.84;4963969;28;45833;-55
2022/01/02 07:29:30;;;;;;;;;5.75;4.75;;;;;11.93;66.02;101096.97;4926730;28;45212;-53
2022/01/02 07:31:56;;;;;;;;;11.00;8.75;;;;;11.94;66.25;101109.66;4944027;28;45361;-52
2022/01/02 07:34:21;;;;;;;;;10.75;8.75;;;;;11.91;65.96;101101.84;4956166;28;45676;-55
2022/01/02 07:36:47;;;;;;;;;7.25;7.25;;;;;11.94;66.00;101106.91;4938031;28;45456;-53
2022/01/02 07:39:12;;;;;;;;;11.25;8.50;;;;;11.93;66.21;101106.06;4950570;28;45514;-54
2022/01/02 07:41:38;;;;;;;;;12.00;9.75;;;;;11.95;66.16;101105.84;4939133;28;45591;-50
2022/01/02 07:44:04;;;;;;;;;11.00;9.00;;;;;11.96;66.22;101110.31;4901529;28;45574;-57
2022/01/02 07:46:32;;;;;;;;;9.00;9.00;;;;;11.77;66.67;101088.09;4944530;28;46025;-54
2022/01/02 07:48:58;;;;;;;;;9.60;8.00;;;;;11.96;66.81;101123.19;4935990;28;45599;-55
2022/01/02 07:51:23;;;;;;;;;10.00;10.00;;;;;11.95;66.91;101127.84;4947310;28;45447;-52
2022/01/02 07:53:49;;;;;;;;;16.00;12.25;;;;;11.97;66.92;101133.13;4938736;28;45433;-58
2022/01/02 07:56:15;;;;;;;;;13.75;10.50;;;;;11.96;67.09;101142.47;4955545;28;45298;-55
2022/01/02 07:58:41;;;;;;;;;9.75;9.75;;;;;11.95;67.06;101149.03;4952261;28;45373;-52
2022/01/02 08:01:07;;;;;;;;;9.00;8.00;;;;;11.91;67.09;101145.84;4949932;28;45983;-59
2022/01/02 08:03:32;;;;;;;;;12.20;9.20;;;;;11.88;67.20;101152.59;4952864;28;45780;-56
2022/01/02 08:05:58;;;;;;;;;11.00;9.75;;;;;11.94;67.33;101167.41;4953863;28;45409;-61
2022/01/02 08:08:23;;;;;;;;;8.25;7.25;;;;;11.79;67.23;101143.72;4886398;28;46638;-60
2022/01/02 08:10:49;;;;;;;;;12.75;9.25;;;;;11.93;67.79;101172.09;4942386;28;46039;-61
2022/01/02 08:13:14;;;;;;;;;9.50;9.00;;;;;11.90;67.74;101179.91;4954193;28;45892;-57
2022/01/02 08:15:40;;;;;;;;;9.50;9.50;;;;;11.98;67.57;101196.22;4951283;28;45825;-59
2022/01/02 08:18:05;;;;;;;;;4.00;0.00;;;;;11.98;67.64;101193.47;4951563;28;45490;-60
2022/01/02 08:20:31;;;;;;;;;12.25;10.00;;;;;12.02;67.90;101191.97;4934508;28;45814;-57
2022/01/02 08:22:57;;;;;;;;;8.50;7.50;;;;;12.03;68.09;101193.72;4951588;28;45573;-57
2022/01/02 08:25:23;;;;;;;;;11.50;9.00;;;;;12.04;68.26;101197.28;4953760;28;45679;-53
2022/01/02 08:27:48;;;;;;;;;11.40;10.60;;;;;11.98;68.18;101196.22;4937397;28;45547;-61
2022/01/02 08:30:13;;;;;;;;;14.00;9.50;;;;;12.09;68.13;101202.16;4953569;28;45744;-59
2022/01/02 08:32:39;;;;;;;;;10.00;8.00;;;;;11.91;68.25;101168.69;4957733;28;45820;-52
2022/01/02 08:35:06;;;;;;;;;9.00;9.00;;;;;12.16;68.03;101203.00;4951527;28;45467;-59
2022/01/02 08:37:32;;;;;;;;;9.00;8.20;;;;;12.18;68.08;101190.72;4939714;28;45767;-59
2022/01/02 08:39:57;;;;;;;;;11.00;8.80;;;;;12.22;67.98;101202.16;4930639;28;45501;-59
2022/01/02 08:42:24;;;;;;;;;13.00;11.25;;;;;12.19;68.16;101197.09;4925304;28;46284;-57
2022/01/02 08:44:53;;;;;;;;;10.80;10.80;;;;;12.23;68.33;101198.38;4933880;28;45946;-59
2022/01/02 08:47:19;;;;;;;;;11.00;10.60;;;;;12.25;68.32;101212.75;4934176;28;45559;-62
2022/01/02 08:49:44;;;;;;;;;11.00;9.00;;;;;12.26;67.80;101203.44;4939818;28;45793;-54
2022/01/02 08:52:10;;;;;;;;;11.25;9.50;;;;;12.15;68.64;101195.81;4970834;28;45408;-58
2022/01/02 08:54:38;;;;;;;;;12.75;9.50;;;;;12.27;68.66;101207.88;4953383;28;45425;-58
2022/01/02 08:57:04;;;;;;;;;9.80;9.80;;;;;12.09;68.61;101191.16;4969213;28;45426;-59
2022/01/02 08:59:29;;;;;;;;;9.75;8.50;;;;;12.27;68.47;101221.63;4969468;28;45853;-53
2022/01/02 09:01:55;;;;;;;;;9.25;9.25;;;;;12.27;69.01;101218.06;4947650;28;46068;-55
2022/01/02 09:04:21;;;;;;;;;8.00;8.00;;;;;12.25;69.28;101228.41;4933600;28;45514;-59
2022/01/02 09:06:46;;;;;;;;;8.50;7.75;;;;;12.06;69.10;101193.28;4939027;28;45759;-61
2022/01/02 09:09:12;;;;;;;;;9.75;8.75;;;;;12.32;69.08;101232.00;4928851;28;45549;-62
2022/01/02 09:11:37;;;;;;;;;11.75;11.50;;;;;12.31;69.39;101244.94;4970298;28;45916;-54
2022/01/02 09:14:03;;;;;;;;;10.00;7.50;;;;;12.32;69.15;101243.03;4931704;28;45559;-55
2022/01/02 09:16:29;;;;;;;;;12.00;11.00;;;;;12.32;69.46;101241.13;4934037;28;45702;-63
2022/01/02 09:18:55;;;;;;;;;10.00;9.00;;;;;12.34;69.44;101247.25;4953594;28;45564;-60
2022/01/02 09:21:20;;;;;;;;;8.25;8.00;;;;;12.35;69.58;101239.84;4939160;28;48212;-53
2022/01/02 09:23:46;;;;;;;;;15.00;11.50;;;;;12.32;69.61;101235.63;4954247;28;45507;-60
2022/01/02 09:26:12;;;;;;;;;13.00;13.00;;;;;12.39;69.61;101243.84;4961239;28;45750;-55
2022/01/02 09:28:37;;;;;;;;;16.00;10.25;;;;;12.16;69.40;101212.13;4938211;28;45839;-54
2022/01/02 09:31:03;;;;;;;;;15.50;12.50;;;;;12.43;69.51;101245.13;4920537;28;48216;-52
2022/01/02 09:33:28;;;;;;;;;16.50;14.25;;;;;12.47;69.79;101251.06;4954348;28;45376;-57
2022/01/02 09:35:54;;;;;;;;;11.50;11.00;;;;;12.46;69.86;101252.13;4954329;28;45392;-57
2022/01/02 09:38:19;;;;;;;;;10.00;9.75;;;;;12.51;69.75;101260.63;4946410;28;46355;-62
2022/01/02 09:40:45;;;;;;;;;11.00;9.75;;;;;12.51;69.62;101263.38;4973648;28;46795;-59
2022/01/02 09:43:10;;;;;;;;;10.25;9.00;;;;;12.55;69.65;101256.34;4935316;28;45769;-61
2022/01/02 09:45:38;;;;;;;;;8.00;7.50;;;;;12.56;69.65;101255.31;4955427;28;45783;-62
2022/01/02 09:48:05;;;;;;;;;12.40;9.80;;;;;12.51;69.61;101251.50;4935763;28;45873;-57
2022/01/02 09:50:31;;;;;;;;;10.00;9.40;;;;;12.53;69.70;101255.72;4960632;28;46235;-60
2022/01/02 09:52:57;;;;;;;;;7.20;7.20;;;;;12.53;69.51;101247.47;4954395;28;45477;-59
2022/01/02 09:55:22;;;;;;;;;7.25;7.25;;;;;12.39;69.31;101218.25;4939106;28;45791;-59
2022/01/02 09:57:48;;;;;;;;;8.25;8.25;;;;;12.37;69.55;101221.22;4920862;28;45586;-59
2022/01/02 10:00:14;;;;;;;;;11.75;10.75;;;;;12.61;69.39;101250.00;4936100;28;45491;-59
2022/01/02 10:02:59;;;;;;;;;8.80;7.60;;;;;12.65;69.50;101258.69;4951928;28;45871;-61
2022/01/02 10:05:26;;;;;;;;;9.00;9.00;;;;;12.68;69.05;101251.91;4917095;28;45488;-54
2022/01/02 10:07:52;;;;;;;;;7.60;7.60;;;;;12.74;69.10;101251.03;4921006;28;45629;-56
2022/01/02 10:10:18;;;;;;;;;6.20;5.20;;;;;12.78;68.74;101255.06;4934251;28;46008;-57
2022/01/02 10:12:43;;;;;;;;;8.00;8.00;;;;;12.81;69.22;101262.91;4916796;28;45887;-57
2022/01/02 10:15:19;;;;;;;;;9.25;8.50;;;;;12.84;69.02;101254.22;4956331;28;45869;-54
2022/01/02 10:18:03;;;;;;;;;10.00;10.00;;;;;12.90;68.57;101251.69;4973499;28;45411;-56
2022/01/02 10:20:42;;;;;;;;;9.00;7.20;;;;;12.91;68.78;101256.13;4967076;28;46467;-51
2022/01/02 10:23:21;;;;;;;;;10.00;5.40;;;;;12.91;68.83;101245.09;4935556;28;45448;-54
2022/01/02 10:25:51;;;;;;;;;5.80;4.80;;;;;12.97;68.59;101244.25;4936748;28;45543;-57
2022/01/02 10:28:26;;;;;;;;;8.00;5.60;;;;;13.02;68.53;101245.28;4971693;28;45480;-55
2022/01/02 10:30:52;;;;;;;;;8.40;6.00;;;;;12.87;68.26;101219.88;4972812;28;45699;-60
2022/01/02 10:33:18;;;;;;;;;7.60;5.60;;;;;13.09;68.27;101244.41;4972726;28;45478;-55
2022/01/02 10:35:43;;;;;;;;;10.75;7.50;;;;;13.17;67.97;101257.13;4972755;28;45441;-56
2022/01/02 10:38:16;;;;;;;;;9.00;5.00;;;;;13.12;67.33;101224.66;4954192;28;45389;-58
2022/01/02 10:40:42;;;;;;;;;9.60;9.00;;;;;13.50;67.56;101245.16;4954763;28;45629;-54
2022/01/02 10:43:28;;;;;;;;;6.40;4.40;;;;;13.45;67.54;101209.91;4931701;28;45390;-57
2022/01/02 10:45:55;;;;;;;;;5.80;4.00;;;;;13.68;66.68;101247.16;4952242;28;45875;-52
2022/01/02 10:48:35;;;;;;;;;8.60;5.60;;;;;13.69;66.74;101246.97;4953544;28;45787;-53
2022/01/02 10:51:03;;;;;;;;;5.20;4.60;;;;;13.72;66.21;101239.28;4941127;28;48267;-53
2022/01/02 10:53:30;;;;;;;;;6.20;5.00;;;;;13.58;66.40;101221.97;4972547;28;45408;-54
2022/01/02 10:55:55;;;;;;;;;9.20;5.40;;;;;13.72;66.54;101237.38;4955769;28;45960;-56
2022/01/02 10:58:21;;;;;;;;;8.50;4.00;;;;;13.77;66.54;101240.31;4954335;28;45526;-56
2022/01/02 11:00:47;;;;;;;;;5.00;4.50;;;;;13.80;66.14;101245.41;4971987;28;46431;-54
2022/01/02 11:03:12;;;;;;;;;2.50;2.50;;;;;13.84;66.08;101245.81;4963160;28;45825;-56
2022/01/02 11:05:41;;;;;;;;;6.25;5.00;;;;;13.68;66.32;101214.06;4972020;28;45579;-57
2022/01/02 11:08:07;;;;;;;;;3.60;3.60;;;;;13.75;66.24;101223.16;4965158;28;45642;-61
2022/01/02 11:10:36;;;;;;;;;4.20;3.20;;;;;13.82;66.27;101237.75;4954192;28;46323;-52
2022/01/02 11:13:03;;;;;;;;;20.80;17.40;;;;;13.88;66.21;101244.28;4954517;28;45541;-56
2022/01/02 11:15:29;;;;;;;;;8.40;4.80;;;;;13.89;66.66;101243.22;4970566;28;45739;-57
2022/01/02 11:17:54;;;;;;;;;8.50;4.75;;;;;13.95;66.25;101234.06;4972258;28;45762;-54
2022/01/02 11:20:24;;;;;;;;;4.00;4.00;;;;;14.01;66.37;101242.50;4951501;28;45466;-57